createdAt,value
2018-03-28T00:01:06.516Z,0
2018-03-28T00:02:06.759Z,0
2018-03-28T00:03:07.173Z,0
2018-03-28T00:04:06.463Z,0
2018-03-28T00:05:06.853Z,0
2018-03-28T00:06:07.528Z,0
2018-03-28T00:07:06.986Z,0
2018-03-28T00:08:06.585Z,0
2018-03-28T00:09:07.106Z,0
2018-03-28T00:10:07.572Z,0
2018-03-28T00:11:07.396Z,0
2018-03-28T00:12:06.714Z,0
2018-03-28T00:13:06.986Z,0
2018-03-28T00:14:07.056Z,0
2018-03-28T00:15:06.686Z,0
2018-03-28T00:16:07.443Z,0
2018-03-28T00:17:06.853Z,0
2018-03-28T00:18:07.209Z,0
2018-03-28T00:19:28.006Z,0
2018-03-28T00:20:28.321Z,0
2018-03-28T00:21:28.834Z,0
2018-03-28T00:22:48.666Z,0
2018-03-28T00:23:49.137Z,0
2018-03-28T00:24:50.147Z,0
2018-03-28T00:25:49.358Z,0
2018-03-28T00:26:48.777Z,0
2018-03-28T00:27:49.663Z,0
2018-03-28T00:28:49.286Z,0
2018-03-28T00:29:49.981Z,0
2018-03-28T00:39:37.241Z,0
2018-03-28T00:40:37.367Z,0
2018-03-28T00:41:37.458Z,0
2018-03-28T00:42:37.579Z,0
2018-03-28T00:43:37.485Z,0
2018-03-28T00:44:37.632Z,0
2018-03-28T00:45:37.712Z,0
2018-03-28T00:46:37.538Z,0
2018-03-28T00:47:37.527Z,0
2018-03-28T00:48:37.459Z,0
2018-03-28T00:49:37.472Z,0
2018-03-28T00:50:37.445Z,0
2018-03-28T00:51:37.421Z,0
2018-03-28T00:52:58.055Z,0
2018-03-28T00:53:59.094Z,0
2018-03-28T00:54:59.121Z,0
2018-03-28T00:55:59.112Z,0
2018-03-28T00:56:59.013Z,0
2018-03-28T00:57:58.919Z,0
2018-03-28T00:58:58.895Z,0
2018-03-28T00:59:59.110Z,0
2018-03-28T01:00:59.047Z,0
2018-03-28T01:01:58.817Z,0
2018-03-28T01:03:19.081Z,0
2018-03-28T01:04:19.963Z,0
2018-03-28T01:05:40.296Z,0
2018-03-28T01:06:41.158Z,0
2018-03-28T01:07:41.252Z,0
2018-03-28T01:08:41.192Z,0
2018-03-28T01:09:41.274Z,0
2018-03-28T01:10:41.402Z,0
2018-03-28T01:12:01.356Z,0
2018-03-28T01:13:01.363Z,0
2018-03-28T01:14:01.529Z,0
2018-03-28T01:15:01.574Z,0
2018-03-28T01:16:01.480Z,0
2018-03-28T01:17:01.387Z,0
2018-03-28T01:18:01.564Z,0
2018-03-28T01:19:01.604Z,0
2018-03-28T01:20:01.666Z,0
2018-03-28T01:21:01.618Z,0
2018-03-28T01:22:01.665Z,0
2018-03-28T01:23:01.602Z,0
2018-03-28T01:24:01.724Z,0
2018-03-28T01:25:01.756Z,0
2018-03-28T01:26:01.843Z,0
2018-03-28T01:27:42.085Z,0
2018-03-28T01:28:42.060Z,0
2018-03-28T01:29:42.946Z,0
2018-03-28T01:30:42.129Z,0
2018-03-28T01:32:01.924Z,0
2018-03-28T01:33:02.776Z,0
2018-03-28T01:34:23.671Z,0
2018-03-28T01:35:23.552Z,0
2018-03-28T01:36:24.405Z,0
2018-03-28T01:37:24.321Z,0
2018-03-28T01:38:24.170Z,0
2018-03-28T01:44:34.589Z,0
2018-03-28T01:45:56.230Z,0
2018-03-28T01:46:56.979Z,0
2018-03-28T01:48:20.158Z,0
2018-03-28T01:49:42.153Z,0
2018-03-28T01:50:42.615Z,0
2018-03-28T01:51:42.519Z,0
2018-03-28T01:52:42.347Z,0
2018-03-28T01:53:42.647Z,0
2018-03-28T01:54:42.610Z,0
2018-03-28T01:55:42.029Z,0
2018-03-28T01:56:42.477Z,0
2018-03-28T01:57:42.725Z,0
2018-03-28T01:58:42.431Z,0
2018-03-28T01:59:43.248Z,0
2018-03-28T02:00:42.897Z,0
2018-03-28T02:01:42.485Z,0
2018-03-28T02:03:24.946Z,0
2018-03-28T02:04:25.163Z,0
2018-03-28T02:05:24.795Z,0
2018-03-28T02:06:25.597Z,0
2018-03-28T02:07:25.774Z,0
2018-03-28T02:08:25.199Z,0
2018-03-28T02:10:06.571Z,0
2018-03-28T02:11:07.408Z,0
2018-03-28T02:12:07.439Z,0
2018-03-28T02:13:07.326Z,0
2018-03-28T02:14:26.759Z,0
2018-03-28T02:15:27.353Z,0
2018-03-28T02:16:27.871Z,0
2018-03-28T02:17:27.249Z,0
2018-03-28T02:18:27.883Z,0
2018-03-28T02:19:27.258Z,0
2018-03-28T02:20:27.656Z,0
2018-03-28T02:21:27.456Z,0
2018-03-28T02:22:28.133Z,0
2018-03-28T02:23:48.062Z,0
2018-03-28T02:24:48.580Z,0
2018-03-28T02:25:48.128Z,0
2018-03-28T02:26:49.042Z,0
2018-03-28T02:27:48.452Z,0
2018-03-28T02:28:49.263Z,0
2018-03-28T02:29:48.701Z,0
2018-03-28T02:30:48.212Z,0
2018-03-28T02:31:48.660Z,0
2018-03-28T02:32:48.192Z,0
2018-03-28T02:33:48.541Z,0
2018-03-28T02:34:48.908Z,0
2018-03-28T02:35:48.248Z,0
2018-03-28T02:36:48.904Z,0
2018-03-28T02:37:48.569Z,0
2018-03-28T02:38:49.333Z,0
2018-03-28T02:39:49.108Z,0
2018-03-28T02:41:09.848Z,0
2018-03-28T02:42:10.369Z,0
2018-03-28T02:43:10.758Z,0
2018-03-28T02:44:10.040Z,0
2018-03-28T02:45:31.254Z,0
2018-03-28T02:46:31.557Z,0
2018-03-28T02:47:52.711Z,0
2018-03-28T02:50:15.709Z,0
2018-03-28T02:51:16.391Z,0
2018-03-28T02:52:16.867Z,0
2018-03-28T02:53:16.201Z,0
2018-03-28T02:54:15.795Z,0
2018-03-28T02:55:16.377Z,0
2018-03-28T02:56:16.184Z,0
2018-03-28T02:57:16.938Z,0
2018-03-28T02:58:16.610Z,0
2018-03-28T02:59:16.399Z,0
2018-03-28T03:00:15.999Z,0
2018-03-28T03:01:16.430Z,0
2018-03-28T03:02:16.237Z,0
2018-03-28T03:03:17.017Z,0
2018-03-28T03:04:16.575Z,0
2018-03-28T03:05:37.437Z,0
2018-03-28T03:06:38.288Z,0
2018-03-28T03:07:37.818Z,0
2018-03-28T03:08:58.700Z,0
2018-03-28T03:09:59.365Z,0
2018-03-28T03:10:58.724Z,0
2018-03-28T03:11:59.516Z,0
2018-03-28T03:12:59.429Z,0
2018-03-28T03:14:20.081Z,0
2018-03-28T03:15:20.732Z,0
2018-03-28T03:16:20.347Z,0
2018-03-28T03:17:21.080Z,0
2018-03-28T03:18:20.586Z,0
2018-03-28T03:19:20.302Z,0
2018-03-28T03:20:21.118Z,0
2018-03-28T03:21:20.686Z,0
2018-03-28T03:22:20.249Z,0
2018-03-28T03:23:20.889Z,0
2018-03-28T03:24:20.537Z,0
2018-03-28T03:25:20.118Z,0
2018-03-28T03:26:20.759Z,0
2018-03-28T03:27:20.467Z,0
2018-03-28T03:28:20.872Z,0
2018-03-28T03:29:20.389Z,0
2018-03-28T03:31:03.785Z,0
2018-03-28T03:32:45.679Z,0
2018-03-28T03:33:46.339Z,0
2018-03-28T03:34:45.857Z,0
2018-03-28T03:35:46.173Z,0
2018-03-28T03:36:46.449Z,0
2018-03-28T03:38:07.040Z,0
2018-03-28T03:39:07.452Z,0
2018-03-28T03:40:08.105Z,0
2018-03-28T03:41:07.565Z,0
2018-03-28T03:42:07.953Z,0
2018-03-28T03:43:07.178Z,0
2018-03-28T03:44:07.738Z,0
2018-03-28T03:45:28.042Z,0
2018-03-28T03:46:50.844Z,0
2018-03-28T03:47:51.022Z,0
2018-03-28T03:49:11.062Z,0
2018-03-28T03:50:31.956Z,0
2018-03-28T03:51:32.661Z,0
2018-03-28T03:52:32.101Z,0
2018-03-28T03:53:32.544Z,0
2018-03-28T03:54:32.951Z,0
2018-03-28T03:55:32.755Z,0
2018-03-28T03:56:32.658Z,0
2018-03-28T03:57:33.104Z,0
2018-03-28T03:58:32.782Z,0
2018-03-28T03:59:32.001Z,0
2018-03-28T04:00:32.283Z,0
2018-03-28T04:01:32.821Z,0
2018-03-28T04:02:32.855Z,0
2018-03-28T04:03:53.149Z,0
2018-03-28T04:04:53.823Z,0
2018-03-28T04:05:53.291Z,0
2018-03-28T04:06:53.890Z,0
2018-03-28T04:07:53.703Z,0
2018-03-28T04:08:53.664Z,0
2018-03-28T04:09:53.409Z,0
2018-03-28T04:10:53.798Z,0
2018-03-28T04:11:53.233Z,0
2018-03-28T04:12:53.636Z,0
2018-03-28T04:14:14.018Z,0
2018-03-28T04:15:14.810Z,0
2018-03-28T04:16:14.395Z,0
2018-03-28T04:17:14.640Z,0
2018-03-28T04:18:14.484Z,0
2018-03-28T04:20:00.753Z,0
2018-03-28T04:21:01.126Z,0
2018-03-28T04:22:22.823Z,0
2018-03-28T04:23:22.192Z,0
2018-03-28T04:24:42.790Z,0
2018-03-28T04:25:43.356Z,0
2018-03-28T04:26:43.112Z,0
2018-03-28T04:27:43.964Z,0
2018-03-28T04:28:43.163Z,0
2018-03-28T04:29:43.821Z,0
2018-03-28T04:30:43.551Z,0
2018-03-28T04:31:43.074Z,0
2018-03-28T04:32:43.456Z,0
2018-03-28T04:34:03.995Z,0
2018-03-28T04:35:04.528Z,0
2018-03-28T04:36:25.217Z,0
2018-03-28T04:37:25.792Z,0
2018-03-28T04:38:25.176Z,0
2018-03-28T04:39:25.862Z,0
2018-03-28T04:40:25.046Z,0
2018-03-28T04:41:25.426Z,0
2018-03-28T04:42:24.841Z,0
2018-03-28T04:43:25.238Z,0
2018-03-28T04:44:25.985Z,0
2018-03-28T04:45:46.029Z,0
2018-03-28T04:46:46.881Z,0
2018-03-28T04:48:07.076Z,0
2018-03-28T04:49:07.719Z,0
2018-03-28T04:50:08.116Z,0
2018-03-28T04:51:29.254Z,0
2018-03-28T04:52:30.011Z,0
2018-03-28T04:53:50.007Z,0
2018-03-28T04:54:50.759Z,0
2018-03-28T04:55:51.479Z,0
2018-03-28T04:56:51.310Z,0
2018-03-28T04:57:51.305Z,0
2018-03-28T04:58:51.236Z,0
2018-03-28T04:59:51.056Z,0
2018-03-28T05:00:51.108Z,0
2018-03-28T05:01:51.106Z,0
2018-03-28T05:02:54.384Z,0
2018-03-28T05:04:05.047Z,0
2018-03-28T05:04:56.322Z,0
2018-03-28T05:06:08.243Z,0
2018-03-28T05:06:57.506Z,0
2018-03-28T05:07:59.981Z,0
2018-03-28T05:09:20.287Z,0
2018-03-28T05:10:31.556Z,0
2018-03-28T05:11:22.169Z,0
2018-03-28T05:13:03.648Z,0
2018-03-28T05:14:25.470Z,0
2018-03-28T05:15:56.166Z,0
2018-03-28T05:16:57.279Z,0
2018-03-28T05:17:57.243Z,0
2018-03-28T05:18:58.047Z,0
2018-03-28T05:20:21.257Z,0
2018-03-28T05:21:27.373Z,1
2018-03-28T05:22:22.090Z,1
2018-03-28T05:23:21.698Z,1
2018-03-28T05:24:22.180Z,1
2018-03-28T05:25:21.941Z,1
2018-03-28T05:26:21.968Z,1
2018-03-28T05:27:21.863Z,1
2018-03-28T05:28:21.495Z,1
2018-03-28T05:29:21.082Z,1
2018-03-28T05:30:42.175Z,1
2018-03-28T05:31:42.577Z,1
2018-03-28T05:32:42.373Z,1
2018-03-28T05:34:23.923Z,1
2018-03-28T05:35:24.546Z,1
2018-03-28T05:36:28.688Z,2
2018-03-28T05:37:24.146Z,2
2018-03-28T05:38:28.223Z,2
2018-03-28T05:39:25.275Z,2
2018-03-28T05:40:24.967Z,2
2018-03-28T05:41:24.720Z,2
2018-03-28T05:42:24.511Z,2
2018-03-28T05:43:24.325Z,2
2018-03-28T05:44:24.218Z,3
2018-03-28T05:45:24.822Z,3
2018-03-28T05:46:24.529Z,5
2018-03-28T05:47:24.881Z,7
2018-03-28T05:48:24.572Z,8
2018-03-28T05:49:45.435Z,9
2018-03-28T05:51:26.957Z,9
2018-03-28T05:52:27.417Z,9
2018-03-28T05:53:49.357Z,7
2018-03-28T05:54:50.436Z,7
2018-03-28T05:55:49.946Z,7
2018-03-28T05:56:49.377Z,7
2018-03-28T05:57:50.010Z,9
2018-03-28T05:58:49.831Z,10
2018-03-28T06:00:30.781Z,12
2018-03-28T06:01:31.429Z,14
2018-03-28T06:02:31.322Z,15
2018-03-28T06:03:31.085Z,16
2018-03-28T06:04:32.009Z,15
2018-03-28T06:05:52.495Z,14
2018-03-28T06:06:53.430Z,14
2018-03-28T06:07:52.743Z,14
2018-03-28T06:08:52.616Z,14
2018-03-28T06:09:53.632Z,12
2018-03-28T06:10:53.029Z,11
2018-03-28T06:11:52.928Z,11
2018-03-28T06:12:52.546Z,12
2018-03-28T06:13:53.028Z,13
2018-03-28T06:15:12.749Z,16
2018-03-28T06:16:13.245Z,17
2018-03-28T06:17:14.367Z,17
2018-03-28T06:18:13.379Z,16
2018-03-28T06:19:34.668Z,16
2018-03-28T06:20:34.386Z,16
2018-03-28T06:21:56.264Z,14
2018-03-28T06:22:56.748Z,14
2018-03-28T06:23:56.393Z,13
2018-03-28T06:24:56.930Z,13
2018-03-28T06:25:56.997Z,13
2018-03-28T06:26:56.541Z,14
2018-03-28T06:27:56.023Z,15
2018-03-28T06:28:56.715Z,16
2018-03-28T06:29:56.229Z,17
2018-03-28T06:31:18.264Z,18
2018-03-28T06:32:19.235Z,18
2018-03-28T06:33:18.920Z,19
2018-03-28T06:34:18.673Z,20
2018-03-28T06:35:38.735Z,21
2018-03-28T06:36:39.455Z,22
2018-03-28T06:37:38.906Z,22
2018-03-28T06:38:39.806Z,22
2018-03-28T06:39:39.640Z,21
2018-03-28T06:40:39.478Z,20
2018-03-28T06:42:01.043Z,19
2018-03-28T06:44:20.181Z,19
2018-03-28T06:45:01.672Z,17
2018-03-28T06:46:01.969Z,17
2018-03-28T06:47:01.525Z,18
2018-03-28T06:48:02.258Z,18
2018-03-28T06:49:01.830Z,19
2018-03-28T06:50:01.838Z,20
2018-03-28T06:51:01.637Z,21
2018-03-28T06:52:02.287Z,22
2018-03-28T06:53:02.061Z,21
2018-03-28T06:54:01.836Z,19
2018-03-28T06:55:01.501Z,19
2018-03-28T06:56:01.412Z,19
2018-03-28T06:57:01.919Z,19
2018-03-28T06:58:22.925Z,20
2018-03-28T06:59:23.405Z,21
2018-03-28T07:00:24.128Z,22
2018-03-28T07:01:23.682Z,23
2018-03-28T07:02:23.769Z,23
2018-03-28T07:03:23.248Z,22
2018-03-28T07:04:24.165Z,20
2018-03-28T07:05:23.982Z,19
2018-03-28T07:06:23.509Z,19
2018-03-28T07:07:24.229Z,20
2018-03-28T07:08:23.969Z,21
2018-03-28T07:09:23.835Z,21
2018-03-28T07:10:53.318Z,21
2018-03-28T07:11:54.247Z,23
2018-03-28T07:12:54.050Z,24
2018-03-28T07:14:15.569Z,24
2018-03-28T07:15:16.450Z,24
2018-03-28T07:16:16.231Z,27
2018-03-28T07:17:15.755Z,31
2018-03-28T07:18:15.453Z,34
2018-03-28T07:19:37.508Z,35
2018-03-28T07:20:38.018Z,34
2018-03-28T07:21:37.675Z,30
2018-03-28T07:22:38.386Z,27
2018-03-28T07:23:59.072Z,27
2018-03-28T07:25:21.319Z,32
2018-03-28T07:26:22.204Z,36
2018-03-28T07:27:22.119Z,45
2018-03-28T07:28:22.013Z,52
2018-03-28T07:29:21.771Z,51
2018-03-28T07:30:42.965Z,51
2018-03-28T07:31:43.837Z,39
2018-03-28T07:32:43.763Z,33
2018-03-28T07:33:43.683Z,34
2018-03-28T07:34:43.526Z,40
2018-03-28T07:35:43.298Z,40
2018-03-28T07:36:44.001Z,35
2018-03-28T07:37:43.898Z,27
2018-03-28T07:38:43.665Z,26
2018-03-28T07:40:03.969Z,26
2018-03-28T07:41:45.621Z,25
2018-03-28T07:42:46.215Z,24
2018-03-28T07:43:46.022Z,31
2018-03-28T07:45:07.178Z,40
2018-03-28T07:46:07.888Z,50
2018-03-28T07:47:07.695Z,53
2018-03-28T07:48:07.470Z,50
2018-03-28T07:49:08.006Z,57
2018-03-28T07:50:07.536Z,71
2018-03-28T07:51:50.655Z,78
2018-03-28T07:52:34.948Z,91
2018-03-28T07:53:33.770Z,101
2018-03-28T07:54:29.109Z,100
2018-03-28T07:55:27.768Z,102
2018-03-28T07:56:28.052Z,115
2018-03-28T07:57:49.180Z,111
2018-03-28T07:58:50.797Z,110
2018-03-28T08:00:10.777Z,107
2018-03-28T08:01:11.347Z,106
2018-03-28T08:02:11.456Z,106
2018-03-28T08:03:32.846Z,111
2018-03-28T08:04:33.907Z,114
2018-03-28T08:05:33.030Z,116
2018-03-28T08:07:15.707Z,116
2018-03-28T08:08:17.137Z,106
2018-03-28T08:09:37.484Z,86
2018-03-28T08:10:38.431Z,77
2018-03-28T08:11:38.366Z,79
2018-03-28T08:12:39.029Z,83
2018-03-28T08:13:37.999Z,80
2018-03-28T08:14:37.537Z,65
2018-03-28T08:15:38.271Z,65
2018-03-28T08:16:37.765Z,72
2018-03-28T08:17:37.808Z,77
2018-03-28T08:18:37.639Z,68
2018-03-28T08:19:37.607Z,64
2018-03-28T08:20:39.220Z,58
2018-03-28T08:21:39.081Z,58
2018-03-28T08:22:37.697Z,51
2018-03-28T08:23:40.599Z,52
2018-03-28T08:24:39.071Z,53
2018-03-28T08:25:38.576Z,64
2018-03-28T08:26:39.798Z,91
2018-03-28T08:27:38.694Z,113
2018-03-28T08:28:39.422Z,134
2018-03-28T08:29:39.443Z,143
2018-03-28T08:30:39.567Z,133
2018-03-28T08:31:37.531Z,103
2018-03-28T08:32:40.697Z,79
2018-03-28T08:33:37.679Z,72
2018-03-28T08:34:39.493Z,77
2018-03-28T08:35:39.216Z,86
2018-03-28T08:36:39.295Z,85
2018-03-28T08:37:38.040Z,75
2018-03-28T08:38:37.976Z,64
2018-03-28T08:39:38.233Z,58
2018-03-28T08:40:38.097Z,55
2018-03-28T08:41:37.846Z,48
2018-03-28T08:42:37.513Z,40
2018-03-28T08:43:38.463Z,43
2018-03-28T08:44:38.162Z,44
2018-03-28T08:45:38.192Z,42
2018-03-28T08:46:37.928Z,40
2018-03-28T08:47:37.345Z,37
2018-03-28T08:48:39.596Z,35
2018-03-28T08:49:38.422Z,34
2018-03-28T08:50:39.701Z,32
2018-03-28T08:51:38.890Z,29
2018-03-28T08:52:39.655Z,32
2018-03-28T08:53:39.456Z,43
2018-03-28T08:54:40.948Z,47
2018-03-28T08:55:38.215Z,45
2018-03-28T08:56:37.650Z,45
2018-03-28T08:57:38.995Z,40
2018-03-28T08:58:38.557Z,58
2018-03-28T08:59:40.757Z,48
2018-03-28T09:00:40.058Z,38
2018-03-28T09:01:39.107Z,36
2018-03-28T09:02:39.037Z,36
2018-03-28T09:03:39.110Z,35
2018-03-28T09:04:37.625Z,43
2018-03-28T09:05:38.086Z,48
2018-03-28T09:06:38.312Z,55
2018-03-28T09:07:59.911Z,68
2018-03-28T09:09:00.684Z,48
2018-03-28T09:10:00.464Z,71
2018-03-28T09:11:00.219Z,60
2018-03-28T09:12:00.220Z,67
2018-03-28T09:12:59.873Z,79
2018-03-28T09:14:00.552Z,76
2018-03-28T09:15:42.136Z,109
2018-03-28T09:16:42.779Z,125
2018-03-28T09:18:23.749Z,136
2018-03-28T09:19:23.506Z,167
2018-03-28T09:20:24.553Z,189
2018-03-28T09:21:24.540Z,213
2018-03-28T09:22:24.806Z,293
2018-03-28T09:23:46.415Z,275
2018-03-28T09:24:47.465Z,312
2018-03-28T09:25:47.472Z,314
2018-03-28T09:26:46.525Z,377
2018-03-28T09:27:46.070Z,476
2018-03-28T09:29:08.536Z,319
2018-03-28T09:30:51.531Z,263
2018-03-28T09:31:51.344Z,265
2018-03-28T09:32:51.202Z,322
2018-03-28T09:33:51.891Z,237
2018-03-28T09:34:51.896Z,192
2018-03-28T09:35:51.485Z,167
2018-03-28T09:36:52.188Z,188
2018-03-28T09:37:51.741Z,238
2018-03-28T09:38:51.954Z,277
2018-03-28T09:39:51.710Z,252
2018-03-28T09:40:51.451Z,301
2018-03-28T09:41:51.408Z,267
2018-03-28T09:42:52.187Z,247
2018-03-28T09:43:52.248Z,328
2018-03-28T09:44:51.783Z,254
2018-03-28T09:45:51.530Z,307
2018-03-28T09:46:51.188Z,261
2018-03-28T09:47:51.826Z,198
2018-03-28T09:49:12.445Z,175
2018-03-28T09:50:12.490Z,213
2018-03-28T09:51:33.744Z,251
2018-03-28T09:52:33.455Z,223
2018-03-28T09:53:34.540Z,193
2018-03-28T09:54:34.794Z,170
2018-03-28T09:55:33.760Z,189
2018-03-28T09:56:33.734Z,207
2018-03-28T09:57:55.422Z,197
2018-03-28T09:58:56.671Z,180
2018-03-28T09:59:55.550Z,161
2018-03-28T10:01:16.350Z,111
2018-03-28T10:02:17.171Z,79
2018-03-28T10:03:17.237Z,62
2018-03-28T10:04:41.075Z,51
2018-03-28T10:05:39.065Z,47
2018-03-28T10:06:38.712Z,44
2018-03-28T10:07:38.835Z,43
2018-03-28T10:08:38.495Z,48
2018-03-28T10:09:39.123Z,56
2018-03-28T10:10:59.361Z,63
2018-03-28T10:12:00.509Z,65
2018-03-28T10:13:00.510Z,67
2018-03-28T10:14:22.906Z,73
2018-03-28T10:15:44.720Z,79
2018-03-28T10:16:44.529Z,83
2018-03-28T10:18:08.480Z,89
2018-03-28T10:19:10.007Z,91
2018-03-28T10:20:06.133Z,94
2018-03-28T10:21:27.411Z,98
2018-03-28T10:22:27.240Z,100
2018-03-28T10:23:28.462Z,103
2018-03-28T10:25:10.739Z,104
2018-03-28T10:26:12.401Z,103
2018-03-28T10:27:34.675Z,101
2018-03-28T10:28:36.095Z,103
2018-03-28T10:29:37.054Z,105
2018-03-28T10:30:35.058Z,112
2018-03-28T10:31:34.872Z,122
2018-03-28T10:32:35.994Z,128
2018-03-28T10:33:38.390Z,135
2018-03-28T10:34:35.223Z,137
2018-03-28T10:35:35.469Z,131
2018-03-28T10:36:36.836Z,125
2018-03-28T10:37:35.304Z,127
2018-03-28T10:38:34.957Z,136
2018-03-28T10:39:34.926Z,143
2018-03-28T10:40:35.009Z,147
2018-03-28T10:41:35.624Z,152
2018-03-28T10:42:35.310Z,157
2018-03-28T10:43:36.454Z,161
2018-03-28T10:44:35.537Z,168
2018-03-28T10:45:35.987Z,183
2018-03-28T10:46:34.918Z,194
2018-03-28T10:47:35.028Z,201
2018-03-28T10:48:56.382Z,214
2018-03-28T10:49:57.701Z,208
2018-03-28T10:50:56.657Z,199
2018-03-28T10:51:56.478Z,203
2018-03-28T10:52:56.821Z,212
2018-03-28T10:53:56.744Z,202
2018-03-28T10:54:56.877Z,209
2018-03-28T10:55:57.274Z,225
2018-03-28T10:56:57.278Z,229
2018-03-28T10:57:57.145Z,241
2018-03-28T10:58:57.112Z,233
2018-03-28T10:59:56.978Z,224
2018-03-28T11:00:57.063Z,213
2018-03-28T11:01:57.342Z,187
2018-03-28T11:02:57.401Z,172
2018-03-28T11:04:18.803Z,175
2018-03-28T11:05:18.923Z,167
2018-03-28T11:06:18.954Z,142
2018-03-28T11:07:19.092Z,137
2018-03-28T11:08:19.177Z,147
2018-03-28T11:09:19.071Z,160
2018-03-28T11:10:18.920Z,172
2018-03-28T11:11:18.784Z,187
2018-03-28T11:12:40.805Z,215
2018-03-28T11:13:42.080Z,229
2018-03-28T11:15:01.556Z,232
2018-03-28T11:16:01.689Z,220
2018-03-28T11:18:57.792Z,158
2018-03-28T11:19:57.628Z,148
2018-03-28T11:21:40.379Z,144
2018-03-28T11:22:40.030Z,148
2018-03-28T11:23:41.273Z,132
2018-03-28T11:24:40.335Z,118
2018-03-28T11:25:40.126Z,117
2018-03-28T11:27:02.450Z,152
2018-03-28T11:28:16.099Z,191
2018-03-28T11:29:03.160Z,220
2018-03-28T11:30:03.042Z,221
2018-03-28T11:31:02.864Z,217
2018-03-28T11:32:02.557Z,209
2018-03-28T11:33:03.504Z,195
2018-03-28T11:34:03.488Z,176
2018-03-28T11:35:03.309Z,153
2018-03-28T11:36:02.982Z,136
2018-03-28T11:37:43.878Z,125
2018-03-28T11:38:44.975Z,127
2018-03-28T11:39:44.928Z,129
2018-03-28T11:40:44.870Z,129
2018-03-28T11:41:44.900Z,122
2018-03-28T11:42:44.676Z,119
2018-03-28T11:43:44.752Z,122
2018-03-28T11:44:44.639Z,122
2018-03-28T11:45:44.829Z,118
2018-03-28T11:47:07.130Z,117
2018-03-28T11:48:07.244Z,112
2018-03-28T11:49:07.186Z,108
2018-03-28T11:50:07.184Z,109
2018-03-28T11:51:52.082Z,120
2018-03-28T11:52:53.095Z,126
2018-03-28T11:54:14.867Z,131
2018-03-28T11:55:14.665Z,136
2018-03-28T11:56:15.077Z,138
2018-03-28T11:57:14.319Z,137
2018-03-28T11:58:56.170Z,132
2018-03-28T11:59:57.261Z,129
2018-03-28T12:00:56.038Z,125
2018-03-28T12:01:57.102Z,122
2018-03-28T12:02:55.992Z,119
2018-03-28T12:03:56.842Z,118
2018-03-28T12:04:56.725Z,117
2018-03-28T12:06:17.526Z,117
2018-03-28T12:07:18.662Z,116
2018-03-28T12:08:18.340Z,116
2018-03-28T12:09:18.923Z,116
2018-03-28T12:10:39.650Z,114
2018-03-28T12:11:40.858Z,113
2018-03-28T12:12:40.978Z,113
2018-03-28T12:13:39.802Z,112
2018-03-28T12:14:40.813Z,112
2018-03-28T12:15:39.628Z,113
2018-03-28T12:16:40.389Z,112
2018-03-28T12:18:01.844Z,111
2018-03-28T12:19:01.653Z,112
2018-03-28T12:20:02.346Z,112
2018-03-28T12:21:23.546Z,110
2018-03-28T12:22:25.004Z,110
2018-03-28T12:23:24.237Z,110
2018-03-28T12:24:24.026Z,110
2018-03-28T12:25:23.680Z,109
2018-03-28T12:26:24.683Z,107
2018-03-28T12:27:24.470Z,103
2018-03-28T12:28:24.884Z,99
2018-03-28T12:29:23.712Z,96
2018-03-28T12:30:24.994Z,95
2018-03-28T12:31:24.247Z,94
2018-03-28T12:32:46.188Z,91
2018-03-28T12:33:45.741Z,89
2018-03-28T12:34:47.538Z,89
2018-03-28T12:35:47.077Z,91
2018-03-28T12:37:07.781Z,93
2018-03-28T12:38:07.601Z,93
2018-03-28T12:39:29.743Z,93
2018-03-28T12:40:29.396Z,93
2018-03-28T12:41:30.704Z,94
2018-03-28T12:42:29.874Z,97
2018-03-28T12:43:30.097Z,99
2018-03-28T12:44:30.114Z,100
2018-03-28T12:45:30.136Z,100
2018-03-28T12:46:30.238Z,100
2018-03-28T12:47:30.740Z,99
2018-03-28T12:48:29.996Z,97
2018-03-28T12:49:30.039Z,97
2018-03-28T12:50:29.996Z,97
2018-03-28T12:51:30.390Z,98
2018-03-28T12:52:51.542Z,99
2018-03-28T12:54:14.133Z,99
2018-03-28T12:55:14.145Z,99
2018-03-28T12:56:14.324Z,98
2018-03-28T12:57:14.595Z,98
2018-03-28T12:58:14.680Z,98
2018-03-28T12:59:57.159Z,98
2018-03-28T13:00:57.320Z,98
2018-03-28T13:01:57.588Z,100
2018-03-28T13:02:57.808Z,99
2018-03-28T13:04:18.607Z,99
2018-03-28T13:05:41.584Z,97
2018-03-28T13:06:42.802Z,95
2018-03-28T13:08:02.781Z,93
2018-03-28T13:09:04.259Z,92
2018-03-28T13:10:02.950Z,90
2018-03-28T13:11:03.856Z,89
2018-03-28T13:12:04.182Z,88
2018-03-28T13:13:02.965Z,88
2018-03-28T13:14:03.215Z,88
2018-03-28T13:15:03.584Z,89
2018-03-28T13:16:04.046Z,91
2018-03-28T13:17:03.072Z,94
2018-03-28T13:18:03.256Z,94
2018-03-28T13:19:46.373Z,93
2018-03-28T13:20:46.206Z,93
2018-03-28T13:21:46.616Z,93
2018-03-28T13:23:07.299Z,92
2018-03-28T13:24:08.745Z,92
2018-03-28T13:25:07.749Z,91
2018-03-28T13:26:07.930Z,91
2018-03-28T13:27:07.877Z,90
2018-03-28T13:28:07.818Z,89
2018-03-28T13:29:29.001Z,88
2018-03-28T13:30:29.732Z,87
2018-03-28T13:31:30.112Z,85
2018-03-28T13:32:29.019Z,84
2018-03-28T13:33:28.823Z,83
2018-03-28T13:34:30.081Z,82
2018-03-28T13:35:29.078Z,83
2018-03-28T13:36:50.991Z,83
2018-03-28T13:37:50.908Z,83
2018-03-28T13:39:12.226Z,83
2018-03-28T13:40:33.615Z,83
2018-03-28T13:41:34.803Z,81
2018-03-28T13:42:34.911Z,80
2018-03-28T13:43:34.887Z,80
2018-03-28T13:44:33.983Z,79
2018-03-28T13:45:55.902Z,78
2018-03-28T13:46:57.037Z,79
2018-03-28T13:47:56.330Z,79
2018-03-28T13:48:56.147Z,78
2018-03-28T13:49:56.224Z,76
2018-03-28T13:51:16.628Z,73
2018-03-28T13:52:17.570Z,71
2018-03-28T13:53:17.570Z,70
2018-03-28T13:54:17.126Z,69
2018-03-28T13:55:16.699Z,69
2018-03-28T13:56:37.773Z,69
2018-03-28T13:57:38.787Z,69
2018-03-28T13:58:38.476Z,70
2018-03-28T13:59:38.301Z,71
2018-03-28T14:00:38.440Z,71
2018-03-28T14:01:38.316Z,70
2018-03-28T14:02:38.231Z,67
2018-03-28T14:03:38.225Z,63
2018-03-28T14:04:37.926Z,59
2018-03-28T14:05:37.757Z,56
2018-03-28T14:06:38.949Z,55
2018-03-28T14:08:20.767Z,52
2018-03-28T14:09:21.111Z,49
2018-03-28T14:10:20.882Z,48
2018-03-28T14:11:42.378Z,46
2018-03-28T14:12:42.300Z,45
2018-03-28T14:13:41.874Z,43
2018-03-28T14:14:42.661Z,40
2018-03-28T14:15:42.821Z,37
2018-03-28T14:17:25.417Z,34
2018-03-28T14:18:26.536Z,33
2018-03-28T14:19:47.704Z,31
2018-03-28T14:20:49.001Z,30
2018-03-28T14:21:48.593Z,31
2018-03-28T14:22:48.610Z,31
2018-03-28T14:23:48.866Z,31
2018-03-28T14:24:49.182Z,31
2018-03-28T14:25:47.984Z,30
2018-03-28T14:26:48.866Z,30
2018-03-28T14:27:47.879Z,29
2018-03-28T14:28:49.075Z,30
2018-03-28T14:29:48.199Z,30
2018-03-28T14:30:48.485Z,29
2018-03-28T14:31:48.205Z,28
2018-03-28T14:32:48.078Z,26
2018-03-28T14:34:09.860Z,27
2018-03-28T14:35:09.532Z,29
2018-03-28T14:36:10.242Z,31
2018-03-28T14:37:10.481Z,34
2018-03-28T14:38:31.262Z,40
2018-03-28T14:39:33.117Z,41
2018-03-28T14:40:32.042Z,41
2018-03-28T14:41:31.903Z,40
2018-03-28T14:42:32.121Z,37
2018-03-28T14:43:32.342Z,33
2018-03-28T14:44:31.921Z,31
2018-03-28T14:45:32.255Z,33
2018-03-28T14:46:32.296Z,37
2018-03-28T14:47:32.685Z,38
2018-03-28T14:48:31.608Z,37
2018-03-28T14:49:52.618Z,35
2018-03-28T14:50:53.703Z,35
2018-03-28T14:51:53.094Z,35
2018-03-28T14:52:53.136Z,36
2018-03-28T14:53:52.847Z,38
2018-03-28T14:54:53.142Z,38
2018-03-28T14:56:14.691Z,39
2018-03-28T14:57:16.081Z,38
2018-03-28T14:58:14.823Z,35
2018-03-28T14:59:14.778Z,34
2018-03-28T15:00:15.038Z,34
2018-03-28T15:01:14.781Z,34
2018-03-28T15:02:15.735Z,35
2018-03-28T15:03:15.562Z,33
2018-03-28T15:04:15.595Z,32
2018-03-28T15:05:15.389Z,29
2018-03-28T15:06:15.319Z,27
2018-03-28T15:07:15.689Z,24
2018-03-28T15:08:15.378Z,24
2018-03-28T15:09:15.489Z,25
2018-03-28T15:10:15.520Z,27
2018-03-28T15:11:15.553Z,28
2018-03-28T15:12:15.473Z,28
2018-03-28T15:13:15.677Z,33
2018-03-28T15:14:35.207Z,40
2018-03-28T15:15:35.804Z,40
2018-03-28T15:16:58.523Z,39
2018-03-28T15:17:59.165Z,40
2018-03-28T15:18:58.743Z,45
2018-03-28T15:19:59.673Z,46
2018-03-28T15:20:59.311Z,47
2018-03-28T15:21:59.027Z,48
2018-03-28T15:22:58.864Z,51
2018-03-28T15:23:58.812Z,52
2018-03-28T15:24:59.438Z,53
2018-03-28T15:25:59.590Z,50
2018-03-28T15:26:59.197Z,44
2018-03-28T15:27:58.921Z,39
2018-03-28T15:28:58.636Z,35
2018-03-28T15:29:59.901Z,30
2018-03-28T15:30:58.973Z,28
2018-03-28T15:31:58.979Z,27
2018-03-28T15:33:21.303Z,24
2018-03-28T15:35:03.885Z,20
2018-03-28T15:36:26.467Z,22
2018-03-28T15:37:28.047Z,25
2018-03-28T15:38:26.798Z,27